Time;durP1;ratioP1;P1;durP2;ratioP2;P2;SDS_P1;SDS_P2;PMS_P1;PMS_P2;Temp;Humidity;BMP_temperature;BMP_pressure;BME280_temperature;BME280_humidity;BME280_pressure;Samples;Min_cycle;Max_cycle;Signal;HPM_P1;HPM_P2
2022/01/15 00:01:32;;;;;;;8.10;2.15;;;;;;;;;;5033541;28;20128;-50
2022/01/15 00:03:58;;;;;;;14.23;2.58;;;;;;;;;;5029784;28;20394;-52
2022/01/15 00:06:24;;;;;;;21.85;2.63;;;;;;;;;;5027548;28;20036;-51
2022/01/15 00:08:50;;;;;;;14.98;2.55;;;;;;;;;;5032105;28;20025;-55
2022/01/15 00:11:16;;;;;;;8.07;2.20;;;;;;;;;;5033880;28;20028;-54
2022/01/15 00:13:44;;;;;;;12.00;2.58;;;;;;;;;;5044581;28;20156;-56
2022/01/15 00:16:15;;;;;;;14.95;2.20;;;;;;;;;;5028333;28;20485;-56
2022/01/15 00:18:47;;;;;;;19.77;2.92;;;;;;;;;;5034045;28;20025;-53
2022/01/15 00:21:14;;;;;;;10.82;2.38;;;;;;;;;;5025477;28;20034;-52
2022/01/15 00:23:40;;;;;;;8.75;1.90;;;;;;;;;;5032529;28;20032;-51
2022/01/15 00:26:06;;;;;;;10.00;2.30;;;;;;;;;;5029448;28;20025;-55
2022/01/15 00:28:32;;;;;;;14.85;2.80;;;;;;;;;;5033853;28;20018;-56
2022/01/15 00:30:58;;;;;;;10.77;2.22;;;;;;;;;;5026119;28;20021;-55
2022/01/15 00:33:25;;;;;;;8.48;2.13;;;;;;;;;;5033744;28;20034;-50
2022/01/15 00:35:52;;;;;;;8.43;2.45;;;;;;;;;;5029916;28;20137;-56
2022/01/15 00:38:18;;;;;;;11.55;2.17;;;;;;;;;;5031251;28;20481;-54
2022/01/15 00:40:44;;;;;;;10.23;2.10;;;;;;;;;;5033463;28;20061;-51
2022/01/15 00:43:10;;;;;;;10.38;2.28;;;;;;;;;;5023938;28;20441;-54
2022/01/15 00:45:36;;;;;;;10.35;1.65;;;;;;;;;;5026216;28;20029;-52
2022/01/15 00:48:02;;;;;;;14.43;2.42;;;;;;;;;;5031793;28;20033;-53
2022/01/15 00:50:28;;;;;;;11.85;2.53;;;;;;;;;;5033204;28;20104;-56
2022/01/15 00:52:54;;;;;;;11.30;2.40;;;;;;;;;;5022522;28;20029;-56
2022/01/15 00:55:20;;;;;;;9.48;2.35;;;;;;;;;;5018659;28;20128;-55
2022/01/15 00:57:47;;;;;;;13.38;2.45;;;;;;;;;;5025478;28;20171;-57
2022/01/15 01:00:15;;;;;;;11.02;1.95;;;;;;;;;;5019502;28;20030;-55
2022/01/15 01:02:41;;;;;;;11.90;2.38;;;;;;;;;;5032617;28;20060;-55
2022/01/15 01:05:07;;;;;;;12.68;1.95;;;;;;;;;;5025625;28;20508;-52
2022/01/15 01:07:33;;;;;;;12.85;2.35;;;;;;;;;;5032526;28;20032;-50
2022/01/15 01:10:23;;;;;;;7.35;1.70;;;;;;;;;;5032527;28;20548;-52
2022/01/15 01:12:57;;;;;;;8.98;2.00;;;;;;;;;;5032006;28;20363;-53
2022/01/15 01:21:21;;;;;;;9.43;2.50;;;;;;;;;;5031341;28;20396;-53
2022/01/15 01:23:47;;;;;;;11.52;2.72;;;;;;;;;;5025158;28;20485;-55
2022/01/15 01:26:28;;;;;;;7.40;2.47;;;;;;;;;;5032643;28;20103;-54
2022/01/15 01:29:11;;;;;;;14.25;3.85;;;;;;;;;;5027389;28;20030;-54
2022/01/15 01:31:52;;;;;;;16.45;3.35;;;;;;;;;;5028259;28;20017;-56
2022/01/15 01:34:18;;;;;;;12.05;2.17;;;;;;;;;;5033036;28;20505;-51
2022/01/15 01:36:55;;;;;;;8.63;2.20;;;;;;;;;;5034432;28;20077;-55
2022/01/15 01:39:23;;;;;;;9.88;2.67;;;;;;;;;;5030286;28;20026;-51
2022/01/15 01:42:12;;;;;;;7.07;2.03;;;;;;;;;;5031019;28;20040;-53
2022/01/15 01:44:42;;;;;;;12.55;2.00;;;;;;;;;;5018105;28;20444;-52
2022/01/15 01:47:23;;;;;;;8.57;2.50;;;;;;;;;;5028436;28;20079;-55
2022/01/15 01:49:49;;;;;;;16.40;2.25;;;;;;;;;;5022214;28;20080;-55
2022/01/15 01:52:15;;;;;;;8.07;2.58;;;;;;;;;;5026251;28;20038;-53
2022/01/15 01:54:41;;;;;;;8.45;2.45;;;;;;;;;;5024814;28;20470;-52
2022/01/15 01:57:07;;;;;;;11.10;2.67;;;;;;;;;;5023891;28;20091;-51
2022/01/15 01:59:33;;;;;;;14.05;2.50;;;;;;;;;;5032139;28;20055;-56
2022/01/15 02:01:59;;;;;;;8.10;2.00;;;;;;;;;;5031738;28;20033;-51
2022/01/15 02:04:25;;;;;;;7.88;1.90;;;;;;;;;;5028597;28;20037;-51
2022/01/15 02:06:51;;;;;;;12.70;1.85;;;;;;;;;;5015590;28;20037;-53
2022/01/15 02:09:20;;;;;;;6.90;2.20;;;;;;;;;;5025189;28;20021;-53
2022/01/15 02:11:46;;;;;;;5.28;1.73;;;;;;;;;;5025512;28;20376;-50
2022/01/15 02:14:24;;;;;;;11.27;1.95;;;;;;;;;;5032772;28;20048;-52
2022/01/15 02:16:50;;;;;;;7.55;1.75;;;;;;;;;;5027653;28;20076;-54
2022/01/15 02:19:16;;;;;;;10.20;1.70;;;;;;;;;;5026919;28;20385;-56
2022/01/15 02:24:14;;;;;;;13.33;2.23;;;;;;;;;;5023077;28;20083;-54
2022/01/15 02:26:40;;;;;;;8.25;1.90;;;;;;;;;;5026533;28;20466;-54
2022/01/15 02:29:07;;;;;;;11.32;2.38;;;;;;;;;;5031412;28;20079;-56
2022/01/15 02:31:33;;;;;;;12.43;1.50;;;;;;;;;;5031247;28;20033;-54
2022/01/15 02:34:00;;;;;;;9.10;2.15;;;;;;;;;;5028339;28;20030;-56
2022/01/15 02:36:30;;;;;;;10.85;2.70;;;;;;;;;;5033577;28;20037;-53
2022/01/15 02:38:57;;;;;;;7.60;1.65;;;;;;;;;;5022858;28;20025;-53
2022/01/15 02:41:29;;;;;;;8.82;1.92;;;;;;;;;;5031670;28;20025;-55
2022/01/15 02:43:55;;;;;;;9.70;1.95;;;;;;;;;;5035344;28;20025;-55
2022/01/15 02:48:00;;;;;;;10.45;2.70;;;;;;;;;;5026979;28;20060;-53
2022/01/15 02:49:10;;;;;;;11.13;3.10;;;;;;;;;;5025534;28;20034;-54
2022/01/15 02:51:36;;;;;;;10.75;2.38;;;;;;;;;;5033642;28;20040;-51
2022/01/15 02:54:03;;;;;;;7.80;2.35;;;;;;;;;;5034889;28;20219;-55
2022/01/15 02:56:32;;;;;;;18.73;2.05;;;;;;;;;;5026858;28;20041;-56
2022/01/15 02:58:58;;;;;;;12.82;2.05;;;;;;;;;;5025623;28;20033;-56
2022/01/15 03:01:24;;;;;;;7.65;1.65;;;;;;;;;;5029837;28;20080;-55
2022/01/15 03:03:51;;;;;;;11.75;1.95;;;;;;;;;;5029791;28;20029;-53
2022/01/15 03:06:17;;;;;;;10.52;1.95;;;;;;;;;;5028214;28;20426;-55
2022/01/15 03:08:45;;;;;;;6.95;2.03;;;;;;;;;;5018522;28;20446;-53
2022/01/15 03:11:11;;;;;;;8.82;1.58;;;;;;;;;;5025482;28;20017;-55
2022/01/15 03:13:37;;;;;;;11.32;2.00;;;;;;;;;;5028340;28;20454;-52
2022/01/15 03:16:04;;;;;;;6.47;1.67;;;;;;;;;;5023126;28;20351;-53
2022/01/15 03:18:30;;;;;;;6.68;2.17;;;;;;;;;;5031553;28;20056;-55
2022/01/15 03:20:56;;;;;;;7.45;1.95;;;;;;;;;;5039205;28;20453;-55
2022/01/15 03:23:22;;;;;;;7.72;2.00;;;;;;;;;;5020487;28;20096;-56
2022/01/15 03:25:48;;;;;;;11.15;2.85;;;;;;;;;;5026418;28;20036;-52
2022/01/15 03:28:14;;;;;;;11.52;2.45;;;;;;;;;;5031467;28;20026;-54
2022/01/15 03:30:40;;;;;;;11.25;2.72;;;;;;;;;;5019608;28;20026;-56
2022/01/15 03:33:06;;;;;;;14.70;3.08;;;;;;;;;;5029354;28;20029;-51
2022/01/15 03:35:32;;;;;;;10.57;2.25;;;;;;;;;;5023285;28;20049;-50
2022/01/15 03:37:58;;;;;;;5.85;2.20;;;;;;;;;;5028213;28;20030;-53
2022/01/15 03:40:24;;;;;;;9.57;2.08;;;;;;;;;;5026491;28;20036;-54
2022/01/15 03:42:50;;;;;;;10.65;2.22;;;;;;;;;;5032260;28;20487;-56
2022/01/15 03:45:17;;;;;;;7.68;1.90;;;;;;;;;;5026728;28;20034;-55
2022/01/15 03:47:44;;;;;;;7.72;2.00;;;;;;;;;;5021581;28;20099;-50
2022/01/15 03:50:10;;;;;;;11.52;2.33;;;;;;;;;;5029219;28;20022;-55
2022/01/15 03:52:36;;;;;;;7.82;2.13;;;;;;;;;;5028041;28;20040;-51
2022/01/15 03:55:03;;;;;;;5.22;2.08;;;;;;;;;;5033048;28;20030;-53
2022/01/15 03:57:29;;;;;;;9.02;2.05;;;;;;;;;;5020097;28;20025;-56
2022/01/15 03:59:55;;;;;;;8.68;1.50;;;;;;;;;;5034083;28;20357;-54
2022/01/15 04:02:21;;;;;;;14.27;2.22;;;;;;;;;;5023021;28;20097;-56
2022/01/15 04:04:47;;;;;;;6.35;2.67;;;;;;;;;;5029054;28;20034;-55
2022/01/15 04:07:13;;;;;;;25.65;7.32;;;;;;;;;;5026864;28;20338;-54
2022/01/15 04:09:39;;;;;;;12.60;3.83;;;;;;;;;;5022242;28;20087;-52
2022/01/15 04:12:05;;;;;;;17.08;2.40;;;;;;;;;;5034224;28;20032;-56
2022/01/15 04:14:31;;;;;;;5.10;1.80;;;;;;;;;;5023083;28;20037;-56
2022/01/15 04:16:57;;;;;;;11.93;2.08;;;;;;;;;;5023498;28;20124;-54
2022/01/15 04:19:24;;;;;;;10.05;2.00;;;;;;;;;;5029481;28;20030;-51
2022/01/15 04:21:50;;;;;;;14.10;2.15;;;;;;;;;;5041070;28;20056;-55
2022/01/15 04:24:17;;;;;;;11.73;2.42;;;;;;;;;;5023500;28;20069;-51
2022/01/15 04:26:43;;;;;;;10.30;2.05;;;;;;;;;;5023683;28;20615;-50
2022/01/15 04:29:09;;;;;;;15.43;2.67;;;;;;;;;;5021878;28;20034;-51
2022/01/15 04:31:47;;;;;;;14.18;2.45;;;;;;;;;;5044113;28;20025;-53
2022/01/15 04:34:17;;;;;;;16.10;2.97;;;;;;;;;;5031934;28;20486;-50
2022/01/15 04:36:43;;;;;;;32.85;7.95;;;;;;;;;;5032084;28;20041;-51
2022/01/15 04:39:10;;;;;;;19.23;4.60;;;;;;;;;;5028134;28;20050;-52
2022/01/15 04:41:36;;;;;;;12.02;2.80;;;;;;;;;;5027532;28;20451;-55
2022/01/15 04:44:03;;;;;;;10.90;3.38;;;;;;;;;;5018483;28;20056;-52
2022/01/15 04:46:29;;;;;;;13.50;3.00;;;;;;;;;;5027513;28;20032;-51
2022/01/15 04:48:55;;;;;;;9.18;2.70;;;;;;;;;;5020669;28;20037;-51
2022/01/15 04:51:21;;;;;;;8.27;3.58;;;;;;;;;;5024838;28;20450;-50
2022/01/15 04:53:47;;;;;;;15.23;3.85;;;;;;;;;;5024917;28;20363;-56
2022/01/15 04:56:13;;;;;;;9.35;2.97;;;;;;;;;;5026962;28;20029;-55
2022/01/15 04:58:39;;;;;;;19.45;4.55;;;;;;;;;;5020657;28;20034;-54
2022/01/15 05:01:05;;;;;;;19.20;3.85;;;;;;;;;;5030117;28;20100;-56
2022/01/15 05:03:32;;;;;;;16.40;3.47;;;;;;;;;;5021454;28;20030;-52
2022/01/15 05:05:58;;;;;;;16.27;2.88;;;;;;;;;;5020395;28;20037;-55
2022/01/15 05:08:24;;;;;;;17.80;3.53;;;;;;;;;;5026610;28;20056;-56
2022/01/15 05:10:53;;;;;;;16.77;3.03;;;;;;;;;;5019380;28;20022;-55
2022/01/15 05:13:23;;;;;;;17.67;3.38;;;;;;;;;;5034985;28;20095;-56
2022/01/15 05:15:49;;;;;;;15.00;3.08;;;;;;;;;;5024992;28;20030;-56
2022/01/15 05:18:15;;;;;;;14.35;2.85;;;;;;;;;;5027422;28;20059;-55
2022/01/15 05:20:44;;;;;;;10.80;3.10;;;;;;;;;;5037499;28;20067;-55
2022/01/15 05:23:10;;;;;;;13.90;3.85;;;;;;;;;;5031292;28;20040;-52
2022/01/15 05:25:36;;;;;;;10.38;3.05;;;;;;;;;;5032728;28;20030;-52
2022/01/15 05:28:02;;;;;;;7.75;3.35;;;;;;;;;;5022829;28;20029;-51
2022/01/15 05:30:30;;;;;;;15.00;2.90;;;;;;;;;;5021977;28;20473;-55
2022/01/15 05:32:56;;;;;;;17.73;3.58;;;;;;;;;;5026795;28;20020;-56
2022/01/15 05:35:26;;;;;;;8.45;2.97;;;;;;;;;;5024489;28;20045;-55
2022/01/15 05:37:52;;;;;;;20.42;3.25;;;;;;;;;;5016629;28;20104;-53
2022/01/15 05:40:18;;;;;;;9.43;3.05;;;;;;;;;;5027421;28;20022;-52
2022/01/15 05:42:46;;;;;;;17.13;3.47;;;;;;;;;;5026280;28;20039;-56
2022/01/15 05:45:12;;;;;;;15.50;4.55;;;;;;;;;;5026368;28;20041;-53
2022/01/15 05:47:38;;;;;;;12.23;2.75;;;;;;;;;;5030373;28;21070;-51
2022/01/15 05:50:04;;;;;;;9.00;2.58;;;;;;;;;;5032309;28;20030;-50
2022/01/15 05:52:30;;;;;;;13.73;4.18;;;;;;;;;;5026909;28;20025;-56
2022/01/15 05:54:56;;;;;;;6.28;2.40;;;;;;;;;;5032290;28;20091;-54
2022/01/15 05:57:22;;;;;;;10.30;3.17;;;;;;;;;;5020182;28;20087;-52
2022/01/15 05:59:51;;;;;;;9.13;2.90;;;;;;;;;;5027213;28;20431;-51
2022/01/15 06:02:17;;;;;;;15.20;3.28;;;;;;;;;;5030678;28;20044;-51
2022/01/15 06:04:43;;;;;;;8.30;3.80;;;;;;;;;;5023348;28;20040;-56
2022/01/15 06:07:09;;;;;;;16.05;4.18;;;;;;;;;;5028099;28;20033;-55
2022/01/15 06:09:35;;;;;;;17.95;3.50;;;;;;;;;;5023740;28;20108;-56
2022/01/15 06:12:01;;;;;;;13.75;3.40;;;;;;;;;;5024700;28;20364;-52
2022/01/15 06:14:29;;;;;;;16.83;3.38;;;;;;;;;;5030367;28;20036;-56
2022/01/15 06:16:55;;;;;;;11.30;3.20;;;;;;;;;;5024792;28;20028;-51
2022/01/15 06:19:21;;;;;;;12.65;3.05;;;;;;;;;;5030810;28;20026;-52
2022/01/15 06:21:47;;;;;;;13.57;3.60;;;;;;;;;;5041575;28;20478;-52
2022/01/15 06:24:13;;;;;;;15.63;3.67;;;;;;;;;;5030006;28;20091;-54
2022/01/15 06:26:40;;;;;;;11.35;3.72;;;;;;;;;;5021553;28;20030;-52
2022/01/15 06:29:06;;;;;;;12.80;4.15;;;;;;;;;;5024563;28;20025;-55
2022/01/15 06:31:32;;;;;;;13.40;3.80;;;;;;;;;;5020493;28;20073;-53
2022/01/15 06:33:58;;;;;;;11.25;3.92;;;;;;;;;;5020529;28;20128;-51
2022/01/15 06:36:24;;;;;;;8.32;3.28;;;;;;;;;;5037726;28;20385;-50
2022/01/15 06:38:50;;;;;;;12.52;3.83;;;;;;;;;;5024597;28;20116;-52
2022/01/15 06:41:16;;;;;;;11.52;3.65;;;;;;;;;;5030527;28;20033;-52
2022/01/15 06:43:42;;;;;;;10.60;3.45;;;;;;;;;;5023288;28;20026;-53
2022/01/15 06:46:08;;;;;;;10.25;3.22;;;;;;;;;;5027061;28;20046;-55
2022/01/15 06:48:34;;;;;;;10.73;3.15;;;;;;;;;;5027071;28;20378;-55
2022/01/15 06:51:00;;;;;;;11.52;3.70;;;;;;;;;;5028340;28;20030;-52
2022/01/15 06:53:26;;;;;;;20.15;3.70;;;;;;;;;;5017608;28;20088;-52
2022/01/15 06:55:53;;;;;;;22.83;4.53;;;;;;;;;;5019305;28;20038;-50
2022/01/15 06:58:19;;;;;;;11.45;3.28;;;;;;;;;;5017266;28;20026;-54
2022/01/15 07:00:46;;;;;;;9.82;3.42;;;;;;;;;;5026116;28;20625;-52
2022/01/15 07:03:12;;;;;;;10.30;3.33;;;;;;;;;;5028256;28;20485;-56
2022/01/15 07:05:38;;;;;;;12.02;4.10;;;;;;;;;;5024077;28;20041;-55
2022/01/15 07:08:04;;;;;;;7.50;3.42;;;;;;;;;;5029233;28;20046;-55
2022/01/15 07:10:30;;;;;;;11.20;3.92;;;;;;;;;;5019839;28;20104;-56
2022/01/15 07:12:56;;;;;;;12.88;3.75;;;;;;;;;;5026195;28;20028;-56
2022/01/15 07:15:22;;;;;;;11.40;3.28;;;;;;;;;;5028503;28;20025;-52
2022/01/15 07:17:49;;;;;;;7.82;3.38;;;;;;;;;;5027152;28;20108;-55
2022/01/15 07:20:16;;;;;;;8.40;3.30;;;;;;;;;;5029543;28;20030;-53
2022/01/15 07:22:43;;;;;;;8.48;3.75;;;;;;;;;;5031804;28;20362;-56
2022/01/15 07:25:09;;;;;;;15.63;3.33;;;;;;;;;;5026313;28;20439;-51
2022/01/15 07:27:35;;;;;;;14.05;3.38;;;;;;;;;;5032042;28;20096;-55
2022/01/15 07:30:02;;;;;;;9.63;3.55;;;;;;;;;;5027029;28;20041;-54
2022/01/15 07:32:28;;;;;;;15.60;4.00;;;;;;;;;;5036821;28;20061;-50
2022/01/15 07:34:54;;;;;;;7.85;3.28;;;;;;;;;;5022217;28;20069;-54
2022/01/15 07:37:20;;;;;;;9.60;2.88;;;;;;;;;;5028391;28;20041;-51
2022/01/15 07:39:46;;;;;;;10.57;3.30;;;;;;;;;;5034404;28;20029;-55
2022/01/15 07:42:12;;;;;;;9.90;3.38;;;;;;;;;;5027518;28;20120;-55
2022/01/15 07:44:38;;;;;;;9.77;3.15;;;;;;;;;;5027759;28;20037;-51
2022/01/15 07:47:04;;;;;;;10.15;3.72;;;;;;;;;;5028561;28;20018;-50
2022/01/15 07:49:32;;;;;;;6.40;2.92;;;;;;;;;;5032958;28;20026;-53
2022/01/15 07:51:58;;;;;;;10.38;3.25;;;;;;;;;;5023929;28;20062;-54
2022/01/15 07:54:24;;;;;;;11.57;3.72;;;;;;;;;;5031299;28;20033;-56
2022/01/15 07:56:54;;;;;;;13.52;3.97;;;;;;;;;;5030451;28;20033;-56
2022/01/15 07:59:20;;;;;;;8.13;3.08;;;;;;;;;;5030179;28;20041;-55
2022/01/15 08:01:46;;;;;;;8.80;3.55;;;;;;;;;;5017187;28;20037;-54
2022/01/15 08:04:12;;;;;;;7.85;3.28;;;;;;;;;;5028943;28;20033;-56
2022/01/15 08:06:42;;;;;;;7.70;3.58;;;;;;;;;;5028792;28;20389;-55
2022/01/15 08:09:08;;;;;;;11.70;3.35;;;;;;;;;;5026079;28;20041;-56
2022/01/15 08:11:34;;;;;;;6.63;2.60;;;;;;;;;;5020974;28;20045;-55
2022/01/15 08:14:00;;;;;;;5.82;2.90;;;;;;;;;;5030841;28;20025;-55
2022/01/15 08:16:27;;;;;;;10.63;3.33;;;;;;;;;;5025524;28;20474;-54
2022/01/15 08:18:53;;;;;;;9.98;3.13;;;;;;;;;;5030503;28;20030;-53
2022/01/15 08:21:19;;;;;;;8.75;3.10;;;;;;;;;;5028805;28;20029;-54
2022/01/15 08:23:45;;;;;;;8.32;2.58;;;;;;;;;;5021875;28;20025;-55
2022/01/15 08:26:11;;;;;;;7.15;2.42;;;;;;;;;;5032817;28;20488;-52
2022/01/15 08:28:37;;;;;;;7.13;3.28;;;;;;;;;;5020891;28;20104;-54
2022/01/15 08:31:04;;;;;;;9.10;3.05;;;;;;;;;;5028555;28;20398;-54
2022/01/15 08:33:31;;;;;;;4.93;2.70;;;;;;;;;;5023934;28;20037;-54
2022/01/15 08:35:57;;;;;;;6.20;2.40;;;;;;;;;;5027041;28;20049;-52
2022/01/15 08:38:23;;;;;;;11.20;2.95;;;;;;;;;;5027532;28;20029;-52
2022/01/15 08:40:49;;;;;;;7.15;2.60;;;;;;;;;;5029397;28;20036;-55
2022/01/15 08:43:15;;;;;;;8.68;2.97;;;;;;;;;;5016969;28;20433;-55
2022/01/15 08:45:43;;;;;;;6.05;2.40;;;;;;;;;;5026957;28;20088;-54
2022/01/15 08:48:09;;;;;;;9.52;3.40;;;;;;;;;;5027332;28;20312;-51
2022/01/15 08:50:36;;;;;;;8.10;3.00;;;;;;;;;;5025706;28;20057;-50
2022/01/15 08:53:02;;;;;;;8.63;3.28;;;;;;;;;;5021800;28;20025;-55
2022/01/15 08:55:29;;;;;;;6.47;2.75;;;;;;;;;;5025607;28;20454;-52
2022/01/15 08:57:57;;;;;;;7.82;3.35;;;;;;;;;;5019366;28;20029;-52
2022/01/15 09:00:23;;;;;;;7.68;2.55;;;;;;;;;;5022940;28;20017;-50
2022/01/15 09:02:51;;;;;;;9.18;3.20;;;;;;;;;;5024849;28;20508;-50
2022/01/15 09:05:17;;;;;;;9.57;2.97;;;;;;;;;;5031352;28;20033;-53
2022/01/15 09:07:43;;;;;;;8.73;3.17;;;;;;;;;;5018418;28;20030;-56
2022/01/15 09:10:09;;;;;;;6.35;2.75;;;;;;;;;;5021003;28;20374;-56
2022/01/15 09:12:35;;;;;;;5.82;2.95;;;;;;;;;;5025995;28;20072;-54
2022/01/15 09:15:02;;;;;;;4.72;2.63;;;;;;;;;;5026114;28;20359;-56
2022/01/15 09:17:28;;;;;;;9.60;3.35;;;;;;;;;;5027167;28;20030;-52
2022/01/15 09:19:55;;;;;;;9.68;2.60;;;;;;;;;;5020839;28;20120;-54
2022/01/15 09:22:21;;;;;;;8.32;3.35;;;;;;;;;;5036556;28;20123;-56
2022/01/15 09:24:47;;;;;;;9.35;3.05;;;;;;;;;;5017321;28;20539;-52
2022/01/15 09:30:12;;;;;;;8.40;3.50;;;;;;;;;;5020984;28;20133;-55
2022/01/15 09:32:38;;;;;;;8.40;3.38;;;;;;;;;;5022290;28;20030;-56
2022/01/15 09:35:04;;;;;;;10.02;3.28;;;;;;;;;;5025326;28;20057;-53
2022/01/15 09:37:31;;;;;;;6.43;2.75;;;;;;;;;;5026790;28;20159;-51
2022/01/15 09:39:57;;;;;;;7.05;2.83;;;;;;;;;;5022349;28;20021;-56
2022/01/15 09:42:24;;;;;;;7.53;2.85;;;;;;;;;;5024844;28;20389;-56
2022/01/15 09:44:50;;;;;;;10.40;3.88;;;;;;;;;;5023095;28;20036;-52
2022/01/15 09:47:17;;;;;;;5.97;3.00;;;;;;;;;;5030658;28;20050;-53
2022/01/15 09:49:45;;;;;;;8.38;3.15;;;;;;;;;;5029163;28;20025;-50
2022/01/15 09:52:12;;;;;;;6.45;2.88;;;;;;;;;;5026504;28;20021;-55
2022/01/15 09:54:38;;;;;;;9.02;3.60;;;;;;;;;;5017640;28;20029;-57
2022/01/15 09:57:05;;;;;;;8.18;3.15;;;;;;;;;;5024077;28;20041;-51
2022/01/15 09:59:31;;;;;;;14.07;5.45;;;;;;;;;;5024654;28;20648;-52
2022/01/15 10:02:02;;;;;;;13.57;4.40;;;;;;;;;;5017745;28;20056;-50
2022/01/15 10:04:31;;;;;;;15.25;6.78;;;;;;;;;;5024346;28;20061;-51
2022/01/15 10:07:07;;;;;;;10.95;3.67;;;;;;;;;;5026662;28;20369;-51
2022/01/15 10:09:33;;;;;;;7.18;3.03;;;;;;;;;;5022880;28;20041;-54
2022/01/15 10:11:59;;;;;;;11.45;3.22;;;;;;;;;;5032546;28;20021;-54
2022/01/15 10:14:26;;;;;;;7.47;3.30;;;;;;;;;;5024150;28;20041;-53
2022/01/15 10:16:52;;;;;;;14.68;3.30;;;;;;;;;;5030430;28;20397;-57
2022/01/15 10:19:26;;;;;;;13.52;4.07;;;;;;;;;;5022383;28;20470;-54
2022/01/15 10:22:08;;;;;;;13.45;3.80;;;;;;;;;;5036731;28;20036;-51
2022/01/15 10:24:34;;;;;;;11.25;3.60;;;;;;;;;;5014112;28;20053;-53
2022/01/15 10:27:19;;;;;;;14.07;3.75;;;;;;;;;;5022050;28;20025;-53
2022/01/15 10:29:52;;;;;;;9.95;3.83;;;;;;;;;;5021600;28;20033;-51
2022/01/15 10:32:18;;;;;;;18.55;4.72;;;;;;;;;;5024690;28;20112;-54
2022/01/15 10:34:45;;;;;;;16.80;4.97;;;;;;;;;;5030709;28;20192;-52
2022/01/15 10:37:15;;;;;;;11.45;2.97;;;;;;;;;;5026135;28;20038;-52
2022/01/15 10:39:53;;;;;;;12.20;4.00;;;;;;;;;;5026582;28;20108;-51
2022/01/15 10:42:23;;;;;;;10.52;3.80;;;;;;;;;;5019936;28;20065;-52
2022/01/15 10:44:49;;;;;;;18.13;4.38;;;;;;;;;;5026367;28;20385;-52
2022/01/15 10:47:17;;;;;;;15.25;4.28;;;;;;;;;;5022068;28;20385;-53
2022/01/15 10:49:44;;;;;;;17.17;3.85;;;;;;;;;;5025406;28;20029;-55
2022/01/15 10:52:11;;;;;;;14.05;4.28;;;;;;;;;;5031083;28;20026;-55
2022/01/15 10:55:00;;;;;;;15.23;5.15;;;;;;;;;;5038249;28;20026;-55
2022/01/15 10:57:37;;;;;;;10.27;4.70;;;;;;;;;;5021153;28;20057;-53
2022/01/15 11:00:09;;;;;;;15.30;4.28;;;;;;;;;;5027535;28;20033;-52
2022/01/15 11:02:35;;;;;;;19.23;5.50;;;;;;;;;;5028955;28;20025;-55
2022/01/15 11:05:02;;;;;;;9.73;3.67;;;;;;;;;;5030907;28;20462;-53
2022/01/15 11:07:28;;;;;;;16.67;4.68;;;;;;;;;;5023934;28;20037;-52
2022/01/15 11:09:54;;;;;;;15.10;3.97;;;;;;;;;;5024109;28;20021;-53
2022/01/15 11:12:28;;;;;;;18.95;5.32;;;;;;;;;;5043065;28;20032;-57
2022/01/15 11:14:54;;;;;;;17.67;3.47;;;;;;;;;;5023138;28;20042;-56
2022/01/15 11:17:20;;;;;;;13.95;4.50;;;;;;;;;;5029933;28;20030;-57
2022/01/15 11:19:50;;;;;;;19.40;5.00;;;;;;;;;;5032628;28;20044;-55
2022/01/15 11:22:21;;;;;;;13.13;4.32;;;;;;;;;;5035064;28;20040;-57
2022/01/15 11:24:47;;;;;;;15.15;4.78;;;;;;;;;;5019412;28;20029;-57
2022/01/15 11:27:13;;;;;;;12.15;4.10;;;;;;;;;;5022402;28;20108;-57
2022/01/15 11:29:42;;;;;;;20.45;4.10;;;;;;;;;;5023190;28;20036;-54
2022/01/15 11:32:12;;;;;;;11.70;3.90;;;;;;;;;;5020818;28;20112;-55
2022/01/15 11:34:39;;;;;;;10.85;4.22;;;;;;;;;;5022766;28;20830;-57
2022/01/15 11:37:23;;;;;;;15.90;4.65;;;;;;;;;;5028986;28;20108;-57
2022/01/15 11:39:52;;;;;;;12.38;4.10;;;;;;;;;;5032134;28;20037;-54
2022/01/15 11:42:25;;;;;;;17.80;4.25;;;;;;;;;;5033071;28;20037;-52
2022/01/15 11:44:51;;;;;;;18.02;3.92;;;;;;;;;;5028646;28;20025;-54
2022/01/15 11:47:21;;;;;;;12.60;3.60;;;;;;;;;;5033131;28;20547;-57
2022/01/15 11:49:51;;;;;;;12.65;3.97;;;;;;;;;;5034324;28;20032;-56
2022/01/15 11:52:22;;;;;;;20.10;3.95;;;;;;;;;;5032080;28;20030;-55
2022/01/15 11:54:51;;;;;;;15.57;3.95;;;;;;;;;;5025564;28;20029;-55
2022/01/15 11:57:20;;;;;;;11.55;4.65;;;;;;;;;;5033093;28;20083;-54
2022/01/15 11:59:50;;;;;;;20.80;4.35;;;;;;;;;;5023846;28;20038;-53
2022/01/15 12:02:25;;;;;;;12.00;3.38;;;;;;;;;;5030148;28;20029;-56
2022/01/15 12:04:51;;;;;;;21.65;5.45;;;;;;;;;;5017512;28;20084;-56
2022/01/15 12:07:21;;;;;;;16.90;4.15;;;;;;;;;;5032920;28;20033;-56
2022/01/15 12:09:48;;;;;;;11.60;4.03;;;;;;;;;;5027905;28;20039;-57
2022/01/15 12:12:41;;;;;;;17.70;3.53;;;;;;;;;;5034727;28;20064;-53
2022/01/15 12:15:11;;;;;;;19.25;3.72;;;;;;;;;;5024954;28;20041;-55
2022/01/15 12:17:37;;;;;;;10.63;3.05;;;;;;;;;;5029714;28;20021;-51
2022/01/15 12:20:05;;;;;;;11.00;2.63;;;;;;;;;;5033743;28;20049;-56
2022/01/15 12:22:35;;;;;;;16.10;3.42;;;;;;;;;;5030052;28;20551;-51
2022/01/15 12:25:04;;;;;;;14.80;2.97;;;;;;;;;;5039291;28;20457;-51
2022/01/15 12:27:31;;;;;;;12.73;3.17;;;;;;;;;;5031349;28;20100;-56
2022/01/15 12:30:00;;;;;;;12.82;2.72;;;;;;;;;;5027195;28;20021;-56
2022/01/15 12:32:27;;;;;;;14.40;3.30;;;;;;;;;;5032254;28;20104;-54
2022/01/15 12:34:53;;;;;;;15.80;3.08;;;;;;;;;;5027893;28;20448;-52
2022/01/15 12:37:19;;;;;;;9.90;2.97;;;;;;;;;;5025371;28;20041;-52
2022/01/15 12:39:45;;;;;;;9.90;2.38;;;;;;;;;;5017782;28;20030;-52
2022/01/15 12:42:12;;;;;;;10.57;3.03;;;;;;;;;;5021024;28;20516;-55
2022/01/15 12:44:42;;;;;;;23.00;3.70;;;;;;;;;;5033044;28;20037;-51
2022/01/15 12:47:09;;;;;;;10.88;2.75;;;;;;;;;;5026133;28;20025;-53
2022/01/15 12:49:36;;;;;;;12.15;3.30;;;;;;;;;;5029231;28;20120;-52
2022/01/15 12:52:21;;;;;;;16.67;3.80;;;;;;;;;;5028098;28;20026;-52
2022/01/15 12:54:48;;;;;;;12.77;2.47;;;;;;;;;;5024855;28;20389;-52
2022/01/15 12:57:15;;;;;;;11.65;2.97;;;;;;;;;;5033294;28;20100;-51
2022/01/15 12:59:41;;;;;;;17.88;3.25;;;;;;;;;;5030784;28;20735;-53
2022/01/15 13:02:09;;;;;;;12.85;3.83;;;;;;;;;;5031938;28;20025;-51
2022/01/15 13:04:35;;;;;;;17.95;3.75;;;;;;;;;;5024361;28;20029;-51
2022/01/15 13:07:02;;;;;;;15.20;3.40;;;;;;;;;;5025179;28;20513;-54
2022/01/15 13:09:45;;;;;;;14.13;3.92;;;;;;;;;;5031194;28;20032;-51
2022/01/15 13:12:11;;;;;;;9.48;2.38;;;;;;;;;;5033695;28;20060;-51
2022/01/15 13:14:41;;;;;;;12.07;3.22;;;;;;;;;;5034871;28;20132;-52
2022/01/15 13:17:19;;;;;;;10.85;3.15;;;;;;;;;;5027741;28;20055;-52
2022/01/15 13:19:45;;;;;;;16.80;3.38;;;;;;;;;;5032504;28;20507;-51
2022/01/15 13:22:11;;;;;;;18.23;3.17;;;;;;;;;;5032419;28;20037;-52
2022/01/15 13:24:37;;;;;;;11.13;3.05;;;;;;;;;;5029928;28;20512;-52
2022/01/15 13:27:04;;;;;;;8.90;3.05;;;;;;;;;;5023095;28;20083;-57
2022/01/15 13:29:37;;;;;;;13.15;3.15;;;;;;;;;;5032398;28;20488;-56
2022/01/15 13:32:06;;;;;;;11.50;3.00;;;;;;;;;;5028438;28;20061;-57
2022/01/15 13:34:34;;;;;;;14.70;3.05;;;;;;;;;;5032260;28;20077;-55
2022/01/15 13:37:07;;;;;;;12.65;3.65;;;;;;;;;;5023766;28;20037;-56
2022/01/15 13:39:34;;;;;;;14.10;2.80;;;;;;;;;;5023450;28;20060;-53
2022/01/15 13:42:00;;;;;;;15.07;4.05;;;;;;;;;;5018169;28;20025;-57
2022/01/15 13:44:31;;;;;;;14.20;3.28;;;;;;;;;;5027139;28;20091;-53
2022/01/15 13:47:05;;;;;;;17.17;2.88;;;;;;;;;;5024410;28;20021;-56
2022/01/15 13:53:04;;;;;;;12.45;2.60;;;;;;;;;;5023945;28;20032;-53
2022/01/15 13:55:11;;;;;;;6.38;2.50;;;;;;;;;;5023858;28;20095;-51
2022/01/15 13:57:38;;;;;;;10.23;2.28;;;;;;;;;;5019031;28;20393;-52
2022/01/15 14:00:10;;;;;;;15.77;2.60;;;;;;;;;;5016348;28;20033;-55
2022/01/15 14:02:36;;;;;;;13.95;2.35;;;;;;;;;;5026348;28;20124;-55
2022/01/15 14:05:16;;;;;;;13.10;3.28;;;;;;;;;;5012816;28;20033;-57
2022/01/15 14:07:42;;;;;;;12.93;3.30;;;;;;;;;;5027309;28;20022;-57
2022/01/15 14:10:13;;;;;;;11.68;3.00;;;;;;;;;;5020557;28;20030;-57
2022/01/15 14:12:40;;;;;;;9.43;2.65;;;;;;;;;;5022270;28;20053;-57
2022/01/15 14:15:14;;;;;;;13.45;2.75;;;;;;;;;;5015271;28;20104;-55
2022/01/15 14:17:42;;;;;;;10.95;2.63;;;;;;;;;;5026127;28;20033;-57
2022/01/15 14:22:42;;;;;;;7.65;2.72;;;;;;;;;;5017291;28;20032;-57
2022/01/15 14:25:14;;;;;;;6.93;2.30;;;;;;;;;;5021368;28;20033;-55
2022/01/15 14:27:40;;;;;;;14.63;3.75;;;;;;;;;;5017595;28;20030;-56
2022/01/15 14:30:06;;;;;;;10.77;2.75;;;;;;;;;;5035812;28;20076;-53
2022/01/15 14:32:32;;;;;;;13.90;2.80;;;;;;;;;;5026214;28;20053;-51
2022/01/15 14:34:59;;;;;;;15.15;3.10;;;;;;;;;;5031459;28;20528;-55
2022/01/15 14:37:26;;;;;;;12.27;3.90;;;;;;;;;;5022190;28;20029;-52
2022/01/15 14:39:53;;;;;;;17.10;3.17;;;;;;;;;;5020355;28;20034;-56
2022/01/15 14:42:19;;;;;;;15.02;3.67;;;;;;;;;;5034061;28;20129;-52
2022/01/15 14:44:45;;;;;;;14.50;2.75;;;;;;;;;;5029425;28;20116;-51
2022/01/15 14:47:12;;;;;;;8.88;2.47;;;;;;;;;;5028537;28;20470;-54
2022/01/15 14:49:38;;;;;;;15.43;3.05;;;;;;;;;;5026547;28;20382;-52
2022/01/15 14:52:04;;;;;;;10.23;2.88;;;;;;;;;;5017595;28;20168;-53
2022/01/15 14:54:30;;;;;;;8.48;3.20;;;;;;;;;;5029084;28;20168;-54